createdAt,value
2022-11-23T00:01:42.935Z,98876.53
2022-11-23T00:04:44.412Z,98876.88
2022-11-23T00:07:46.107Z,98875.41
2022-11-23T00:10:47.587Z,98878.97
2022-11-23T00:13:49.173Z,98883.75
2022-11-23T00:16:50.636Z,98882.94
2022-11-23T00:19:52.133Z,98878.72
2022-11-23T00:22:53.600Z,98876.84
2022-11-23T00:25:55.070Z,98887.88
2022-11-23T00:28:56.647Z,98873.69
2022-11-23T00:32:01.664Z,98876.59
2022-11-23T00:35:03.279Z,98884.09
2022-11-23T00:38:05.920Z,98879.72
2022-11-23T00:41:10.140Z,98877.84
2022-11-23T00:44:11.857Z,98879.06
2022-11-23T00:47:13.324Z,98878.22
2022-11-23T00:50:15.002Z,98873.00
2022-11-23T00:53:17.252Z,98878.59
2022-11-23T00:56:20.094Z,98868.63
2022-11-23T00:59:21.571Z,98873.16
2022-11-23T01:02:23.150Z,98868.97
2022-11-23T01:05:24.638Z,98881.50
2022-11-23T01:08:26.132Z,98877.09
2022-11-23T01:11:30.418Z,98878.81
2022-11-23T01:14:31.898Z,98882.53
2022-11-23T01:17:33.358Z,98880.88
2022-11-23T01:20:34.852Z,98875.44
2022-11-23T01:23:36.542Z,98882.75
2022-11-23T01:26:38.693Z,98880.03
2022-11-23T01:29:40.133Z,98877.72
2022-11-23T01:32:41.698Z,98882.09
2022-11-23T01:35:43.203Z,98886.69
2022-11-23T01:38:46.216Z,98885.84
2022-11-23T01:41:48.713Z,98873.31
2022-11-23T01:44:52.695Z,98875.19
2022-11-23T01:47:54.232Z,98878.06
2022-11-23T01:50:57.634Z,98878.06
2022-11-23T01:54:04.958Z,98875.38
2022-11-23T01:57:13.793Z,98888.91
2022-11-23T02:00:15.820Z,98878.47
2022-11-23T02:03:18.540Z,98883.06
2022-11-23T02:06:23.067Z,98884.72
2022-11-23T02:09:24.831Z,98873.25
2022-11-23T02:12:26.389Z,98880.34
2022-11-23T02:15:27.931Z,98878.88
2022-11-23T02:18:31.552Z,98885.31
2022-11-23T02:21:33.145Z,98882.78
2022-11-23T02:24:40.972Z,98889.25
2022-11-23T02:27:47.126Z,98888.41
2022-11-23T02:30:52.484Z,98886.72
2022-11-23T02:33:57.891Z,98892.31
2022-11-23T02:36:59.782Z,98893.38
2022-11-23T02:40:11.544Z,98886.09
2022-11-23T02:43:13.596Z,98895.25
2022-11-23T02:46:15.275Z,98893.38
2022-11-23T02:49:16.783Z,98896.25
2022-11-23T02:52:19.434Z,98893.38
2022-11-23T02:55:21.056Z,98887.13
2022-11-23T02:58:22.579Z,98886.28
2022-11-23T03:01:24.144Z,98893.38
2022-11-23T03:04:27.804Z,98889.84
2022-11-23T03:07:29.804Z,98889.00
2022-11-23T03:10:34.029Z,98882.53
2022-11-23T03:13:36.198Z,98886.28
2022-11-23T03:16:38.271Z,98879.19
2022-11-23T03:19:41.764Z,98885.44
2022-11-23T03:22:45.341Z,98878.34
2022-11-23T03:25:58.899Z,98876.47
2022-11-23T03:29:05.639Z,98879.38
2022-11-23T03:32:07.426Z,98883.94
2022-11-23T03:35:09.709Z,98879.75
2022-11-23T03:38:22.541Z,98884.34
2022-11-23T03:41:24.160Z,98885.38
2022-11-23T03:44:27.960Z,98875.56
2022-11-23T03:47:29.558Z,98886.59
2022-11-23T03:50:31.177Z,98880.34
2022-11-23T03:53:32.822Z,98885.75
2022-11-23T03:56:34.439Z,98882.19
2022-11-23T03:59:36.205Z,98883.25
2022-11-23T04:02:37.762Z,98888.66
2022-11-23T04:05:43.907Z,98886.13
2022-11-23T04:09:04.076Z,98884.28
2022-11-23T04:12:18.132Z,98887.00
2022-11-23T04:15:20.172Z,98890.53
2022-11-23T04:18:21.720Z,98882.41
2022-11-23T04:21:23.576Z,98885.13
2022-11-23T04:24:25.303Z,98887.81
2022-11-23T04:27:29.652Z,98891.19
2022-11-23T04:30:31.184Z,98884.91
2022-11-23T04:33:33.592Z,98893.69
2022-11-23T04:36:35.285Z,98888.25
2022-11-23T04:39:37.284Z,98887.25
2022-11-23T04:43:04.780Z,98892.66
2022-11-23T04:46:11.300Z,98890.78
2022-11-23T04:49:13.043Z,98888.09
2022-11-23T04:52:14.897Z,98894.34
2022-11-23T04:55:20.838Z,98897.22
2022-11-23T04:58:36.544Z,98898.09
2022-11-23T05:01:38.252Z,98905.16
2022-11-23T05:05:06.315Z,98908.72
2022-11-23T05:08:08.583Z,98909.53
2022-11-23T05:11:25.330Z,98916.84
2022-11-23T05:14:26.972Z,98907.69
2022-11-23T05:17:28.612Z,98905.00
2022-11-23T05:20:30.706Z,98912.25
2022-11-23T05:23:32.624Z,98919.34
2022-11-23T05:26:34.505Z,98911.25
2022-11-23T05:29:37.543Z,98921.25
2022-11-23T05:32:40.831Z,98910.59
2022-11-23T05:35:42.347Z,98907.03
2022-11-23T05:38:43.968Z,98921.41
2022-11-23T05:42:01.335Z,98928.88
2022-11-23T05:45:22.395Z,98935.34
2022-11-23T05:48:27.923Z,98934.50
2022-11-23T05:51:32.940Z,98931.97
2022-11-23T05:54:35.190Z,98935.72
2022-11-23T05:57:45.798Z,98933.19
2022-11-23T06:00:47.355Z,98936.94
2022-11-23T06:03:51.530Z,98936.09
2022-11-23T06:06:59.089Z,98935.25
2022-11-23T06:10:01.668Z,98933.19
2022-11-23T06:13:04.922Z,98936.75
2022-11-23T06:16:08.155Z,98944.88
2022-11-23T06:19:20.385Z,98948.41
2022-11-23T06:22:22.210Z,98950.09
2022-11-23T06:25:34.862Z,98952.59
2022-11-23T06:28:44.704Z,98949.91
2022-11-23T06:31:46.988Z,98961.59
2022-11-23T06:34:48.991Z,98958.69
2022-11-23T06:37:51.954Z,98962.03
2022-11-23T06:40:56.964Z,98961.22
2022-11-23T06:43:58.498Z,98964.56
2022-11-23T06:47:16.507Z,98968.13
2022-11-23T06:50:18.963Z,98972.69
2022-11-23T06:53:22.221Z,98970.00
2022-11-23T06:56:31.394Z,98966.41
2022-11-23T06:59:33.193Z,98974.53
2022-11-23T07:02:34.799Z,98985.38
2022-11-23T07:05:38.551Z,98985.38
2022-11-23T07:08:43.332Z,98991.00
2022-11-23T07:11:57.602Z,98984.75
2022-11-23T07:14:59.075Z,98989.31
2022-11-23T07:18:05.625Z,98996.59
2022-11-23T07:21:08.103Z,98994.94
2022-11-23T07:24:10.264Z,98999.31
2022-11-23T07:27:11.775Z,98994.94
2022-11-23T07:30:13.744Z,98993.72
2022-11-23T07:33:15.279Z,98992.22
2022-11-23T07:36:17.080Z,99000.34
2022-11-23T07:39:28.529Z,98997.63
2022-11-23T07:42:45.021Z,99004.06
2022-11-23T07:45:47.988Z,99010.34
2022-11-23T07:48:51.577Z,99004.94
2022-11-23T07:51:54.200Z,99002.41
2022-11-23T07:54:56.907Z,99007.81
2022-11-23T07:57:58.424Z,99020.69
2022-11-23T08:00:59.939Z,99013.59
2022-11-23T08:04:01.420Z,99019.19
2022-11-23T08:07:03.799Z,99023.78
2022-11-23T08:10:05.911Z,99026.31
2022-11-23T08:13:07.555Z,99020.91
2022-11-23T08:16:09.496Z,99028.16
2022-11-23T08:19:10.953Z,99025.28
2022-11-23T08:22:15.723Z,99032.56
2022-11-23T08:25:17.540Z,99029.03
2022-11-23T08:28:19.577Z,99031.72
2022-11-23T08:31:21.067Z,99037.97
2022-11-23T08:34:22.544Z,99041.53
2022-11-23T08:37:23.990Z,99035.44
2022-11-23T08:40:26.047Z,99041.91
2022-11-23T08:43:28.600Z,99044.78
2022-11-23T08:46:30.272Z,99043.94
2022-11-23T08:49:31.717Z,99043.94
2022-11-23T08:52:33.287Z,99036.00
2022-11-23T08:55:34.868Z,99041.63
2022-11-23T08:58:36.788Z,99042.47
2022-11-23T09:01:38.303Z,99043.50
2022-11-23T09:04:40.928Z,99045.34
2022-11-23T09:07:42.541Z,99039.09
2022-11-23T09:10:44.083Z,99041.81
2022-11-23T09:13:45.532Z,99046.38
2022-11-23T09:16:47.031Z,99040.13
2022-11-23T09:19:50.307Z,99038.44
2022-11-23T09:22:53.053Z,99035.72
2022-11-23T09:25:54.553Z,99036.78
2022-11-23T09:28:56.015Z,99040.31
2022-11-23T09:31:57.453Z,99036.78
2022-11-23T09:34:58.946Z,99037.59
2022-11-23T09:38:01.256Z,99044.72
2022-11-23T09:41:12.528Z,99042.19
2022-11-23T09:44:43.660Z,99040.31
2022-11-23T09:48:14.803Z,99040.31
2022-11-23T09:51:18.659Z,99045.72
2022-11-23T09:54:26.676Z,99046.38
2022-11-23T09:57:31.944Z,99048.91
2022-11-23T10:00:46.423Z,99048.72
2022-11-23T10:03:49.395Z,99051.03
2022-11-23T10:07:00.270Z,99047.59
2022-11-23T10:10:10.573Z,99045.34
2022-11-23T10:13:30.246Z,99051.25
2022-11-23T10:16:49.394Z,99057.94
2022-11-23T10:20:13.436Z,99058.44
2022-11-23T10:23:45.255Z,99054.50
2022-11-23T10:26:49.748Z,99058.69
2022-11-23T10:29:56.321Z,99059.31
2022-11-23T10:32:57.683Z,99062.50
2022-11-23T10:35:59.189Z,99066.88
2022-11-23T10:39:02.105Z,99058.38
2022-11-23T10:42:18.143Z,99061.75
2022-11-23T10:45:25.302Z,99062.41
2022-11-23T10:48:36.031Z,99073.06
2022-11-23T10:51:37.860Z,99072.03
2022-11-23T10:54:54.508Z,99065.56
2022-11-23T10:57:57.112Z,99069.13
2022-11-23T11:01:03.746Z,99060.13
2022-11-23T11:04:22.934Z,99071.63
2022-11-23T11:07:28.513Z,99064.53
2022-11-23T11:11:01.056Z,99061.63
2022-11-23T11:14:05.479Z,99065.56
2022-11-23T11:17:26.499Z,99064.34
2022-11-23T11:20:27.956Z,99057.91
2022-11-23T11:23:31.267Z,99054.81
2022-11-23T11:26:35.912Z,99057.34
2022-11-23T11:29:45.460Z,99044.63
2022-11-23T11:33:14.633Z,99050.50
2022-11-23T11:36:16.929Z,99041.72
2022-11-23T11:39:27.770Z,99045.06
2022-11-23T11:42:34.921Z,99043.19
2022-11-23T11:45:59.714Z,99039.47
2022-11-23T11:49:22.736Z,99054.69
2022-11-23T11:52:37.234Z,99045.53
2022-11-23T11:56:04.414Z,99043.66
2022-11-23T11:59:28.220Z,99037.19
2022-11-23T12:02:45.152Z,99030.78
2022-11-23T12:05:48.950Z,99023.25
2022-11-23T12:09:12.968Z,99022.25
2022-11-23T12:12:18.040Z,99023.09
2022-11-23T12:19:09.163Z,99009.53
2022-11-23T12:22:13.678Z,99012.41
2022-11-23T12:25:33.223Z,99008.69
2022-11-23T12:29:02.239Z,99010.56
2022-11-23T12:32:25.592Z,98997.66
2022-11-23T12:36:12.242Z,99002.06
2022-11-23T12:39:32.404Z,98994.75
2022-11-23T12:43:05.716Z,99009.13
2022-11-23T12:46:20.898Z,99004.38
2022-11-23T12:50:00.010Z,98998.94
2022-11-23T12:53:35.744Z,99000.63
2022-11-23T12:57:09.766Z,98997.91
2022-11-23T13:00:19.797Z,99006.25
2022-11-23T13:03:33.561Z,99007.25
2022-11-23T13:07:29.520Z,98993.53
2022-11-23T13:11:05.722Z,98996.22
2022-11-23T13:14:31.290Z,98998.75
2022-11-23T13:17:42.514Z,98997.72
2022-11-23T13:21:07.571Z,98985.84
2022-11-23T13:24:25.760Z,98980.03
2022-11-23T13:27:31.704Z,98975.84
2022-11-23T13:31:07.184Z,98977.50
2022-11-23T13:34:02.658Z,98970.22
2022-11-23T13:37:13.089Z,98964.16
2022-11-23T13:40:24.595Z,98971.06
2022-11-23T13:43:32.054Z,98960.41
2022-11-23T13:46:35.727Z,98963.13
2022-11-23T13:49:44.468Z,98962.91
2022-11-23T13:52:50.724Z,98960.22
2022-11-23T13:55:56.020Z,98964.63
2022-11-23T13:58:58.991Z,98963.56
2022-11-23T14:02:00.551Z,98960.03
2022-11-23T14:05:31.501Z,98965.06
2022-11-23T14:08:35.180Z,98963.38
2022-11-23T14:11:50.747Z,98957.13
2022-11-23T14:15:07.404Z,98957.97
2022-11-23T14:18:36.065Z,98964.63
2022-11-23T14:22:02.491Z,98962.91
2022-11-23T14:25:35.299Z,98960.22
2022-11-23T14:29:12.667Z,98954.78
2022-11-23T14:32:50.263Z,98948.34
2022-11-23T14:35:57.749Z,98952.72
2022-11-23T14:39:14.466Z,98945.63
2022-11-23T14:42:20.599Z,98952.53
2022-11-23T14:45:25.363Z,98957.13
2022-11-23T14:48:31.699Z,98955.25
2022-11-23T14:51:34.872Z,98956.25
2022-11-23T14:54:37.055Z,98960.84
2022-11-23T14:57:42.365Z,98965.44
2022-11-23T15:00:44.147Z,98970.22
2022-11-23T15:03:56.276Z,98970.88
2022-11-23T15:07:22.253Z,98977.13
2022-11-23T15:10:38.906Z,98986.09
2022-11-23T15:13:52.157Z,98972.34
2022-11-23T15:16:53.682Z,98977.97
2022-11-23T15:20:00.962Z,98990.28
2022-11-23T15:23:03.834Z,98989.44
2022-11-23T15:26:34.807Z,98991.16
2022-11-23T15:29:39.151Z,98998.63
2022-11-23T15:32:40.906Z,98996.09
2022-11-23T15:35:42.546Z,98998.81
2022-11-23T15:38:44.374Z,98997.97
2022-11-23T15:41:47.204Z,99006.13
2022-11-23T15:44:51.159Z,99005.28
2022-11-23T15:47:53.076Z,99001.75
2022-11-23T15:51:03.934Z,99004.22
2022-11-23T15:54:11.911Z,99004.22
2022-11-23T15:57:19.809Z,99009.47
2022-11-23T16:00:24.810Z,99015.56
2022-11-23T16:03:31.915Z,99001.13
2022-11-23T16:06:41.525Z,99001.78
2022-11-23T16:09:52.717Z,98991.78
2022-11-23T16:13:02.731Z,98993.50
2022-11-23T16:16:16.765Z,98987.88
2022-11-23T16:19:24.871Z,98989.34
2022-11-23T16:22:38.620Z,98998.13
2022-11-23T16:25:40.212Z,98995.22
2022-11-23T16:28:54.481Z,98989.59
2022-11-23T16:31:59.812Z,98984.19
2022-11-23T16:35:19.529Z,98984.03
2022-11-23T16:38:21.096Z,98982.16
2022-11-23T16:41:22.596Z,98992.03
2022-11-23T16:44:24.110Z,98997.81
2022-11-23T16:47:27.055Z,99004.16
2022-11-23T16:50:33.770Z,99013.84
2022-11-23T16:54:07.899Z,99017.84
2022-11-23T16:56:56.862Z,99026.88
2022-11-23T17:00:02.381Z,99021.72
2022-11-23T17:03:03.952Z,99015.91
2022-11-23T17:06:05.591Z,99032.66
2022-11-23T17:09:08.282Z,99029.72
2022-11-23T17:12:16.854Z,99030.22
2022-11-23T17:15:21.453Z,99035.66
2022-11-23T17:18:23.035Z,99043.78
2022-11-23T17:21:24.481Z,99051.09
2022-11-23T17:24:25.944Z,99057.13
2022-11-23T17:27:28.235Z,99061.72
2022-11-23T17:30:29.823Z,99069.69
2022-11-23T17:33:31.338Z,99074.91
2022-11-23T17:36:33.418Z,99076.59
2022-11-23T17:39:35.781Z,99086.41
2022-11-23T17:42:37.387Z,99086.22
2022-11-23T17:45:38.987Z,99087.88
2022-11-23T17:48:40.668Z,99099.56
2022-11-23T17:51:43.106Z,99099.56
2022-11-23T17:54:44.607Z,99105.63
2022-11-23T17:57:46.082Z,99112.94
2022-11-23T18:00:47.552Z,99123.63
2022-11-23T18:03:49.646Z,99128.00
2022-11-23T18:06:51.172Z,99124.25
2022-11-23T18:09:52.734Z,99133.03
2022-11-23T18:12:54.206Z,99132.63
2022-11-23T18:15:55.853Z,99137.69
2022-11-23T18:18:57.497Z,99135.63
2022-11-23T18:21:59.144Z,99138.31
2022-11-23T18:25:00.637Z,99140.69
2022-11-23T18:28:02.121Z,99143.00
2022-11-23T18:31:03.663Z,99145.50
2022-11-23T18:34:05.424Z,99146.38
2022-11-23T18:37:07.760Z,99143.44
2022-11-23T18:40:09.713Z,99152.06
2022-11-23T18:43:11.247Z,99153.53
2022-11-23T18:46:19.272Z,99154.81
2022-11-23T18:49:21.004Z,99167.16
2022-11-23T18:52:22.856Z,99164.25
2022-11-23T18:55:24.335Z,99163.22
2022-11-23T18:58:25.840Z,99171.19
2022-11-23T19:01:27.694Z,99168.47
2022-11-23T19:04:32.367Z,99171.63
2022-11-23T19:07:33.912Z,99169.94
2022-11-23T19:10:37.643Z,99172.09
2022-11-23T19:13:39.119Z,99173.94
2022-11-23T19:16:40.601Z,99169.56
2022-11-23T19:19:42.158Z,99170.38
2022-11-23T19:22:43.639Z,99174.97
2022-11-23T19:25:45.112Z,99164.78
2022-11-23T19:28:47.216Z,99172.91
2022-11-23T19:31:54.287Z,99164.97
2022-11-23T19:34:55.754Z,99175.81
2022-11-23T19:37:58.129Z,99174.97
2022-11-23T19:40:59.628Z,99173.09
2022-11-23T19:44:01.585Z,99176.88
2022-11-23T19:47:06.172Z,99185.84
2022-11-23T19:50:10.164Z,99182.06
2022-11-23T19:53:13.060Z,99190.22
2022-11-23T19:56:17.306Z,99191.09
2022-11-23T19:59:18.872Z,99193.59
2022-11-23T20:02:25.193Z,99193.41
2022-11-23T20:05:27.249Z,99186.94
2022-11-23T20:08:28.805Z,99187.59
2022-11-23T20:11:32.244Z,99196.16
2022-11-23T20:14:33.705Z,99196.00
2022-11-23T20:17:35.188Z,99204.56
2022-11-23T20:20:44.760Z,99212.34
2022-11-23T20:23:47.466Z,99210.25
2022-11-23T20:26:48.929Z,99206.53
2022-11-23T20:29:50.399Z,99216.34
2022-11-23T20:32:52.087Z,99214.47
2022-11-23T20:35:53.637Z,99215.13
2022-11-23T20:38:55.682Z,99221.19
2022-11-23T20:41:58.549Z,99220.34
2022-11-23T20:45:00.048Z,99223.06
2022-11-23T20:48:01.554Z,99233.72
2022-11-23T20:51:10.086Z,99234.59
2022-11-23T20:54:12.204Z,99231.88
2022-11-23T20:57:13.744Z,99231.88
2022-11-23T21:00:16.757Z,99240.84
2022-11-23T21:03:18.434Z,99245.44
2022-11-23T21:06:21.115Z,99236.25
2022-11-23T21:09:22.643Z,99236.25
2022-11-23T21:12:47.591Z,99234.38
2022-11-23T21:15:51.869Z,99240.63
2022-11-23T21:18:53.356Z,99227.94
2022-11-23T21:21:55.564Z,99245.06
2022-11-23T21:24:57.067Z,99237.75
2022-11-23T21:27:58.522Z,99240.47
2022-11-23T21:31:10.115Z,99250.09
2022-11-23T21:34:22.888Z,99259.06
2022-11-23T21:37:25.988Z,99255.72
2022-11-23T21:40:28.146Z,99271.81
2022-11-23T21:43:31.223Z,99273.50
2022-11-23T21:46:32.906Z,99283.53
2022-11-23T21:49:34.459Z,99285.41
2022-11-23T21:52:35.966Z,99288.13
2022-11-23T21:55:37.457Z,99284.56
2022-11-23T21:58:40.007Z,99293.53
2022-11-23T22:01:42.450Z,99284.56
2022-11-23T22:04:44.102Z,99286.63
2022-11-23T22:08:00.531Z,99295.81
2022-11-23T22:11:31.952Z,99303.09
2022-11-23T22:14:33.841Z,99298.91
2022-11-23T22:17:35.532Z,99311.63
2022-11-23T22:20:37.530Z,99298.28
2022-11-23T22:23:39.730Z,99306.41
2022-11-23T22:26:41.827Z,99310.97
2022-11-23T22:29:43.449Z,99310.09
2022-11-23T22:32:45.054Z,99301.03
2022-11-23T22:35:46.713Z,99308.53
2022-11-23T22:38:48.600Z,99306.19
2022-11-23T22:41:50.186Z,99296.56
2022-11-23T22:44:51.784Z,99300.50
2022-11-23T22:47:53.585Z,99293.56
2022-11-23T22:50:56.854Z,99300.00
2022-11-23T22:54:00.115Z,99312.97
2022-11-23T22:57:01.719Z,99317.91
2022-11-23T23:00:04.632Z,99319.78
2022-11-23T23:03:06.380Z,99312.88
2022-11-23T23:06:15.912Z,99312.03
2022-11-23T23:09:17.840Z,99304.44
2022-11-23T23:12:19.408Z,99313.44
2022-11-23T23:15:21.606Z,99319.25
2022-11-23T23:18:23.236Z,99314.84
2022-11-23T23:21:26.443Z,99317.75
2022-11-23T23:24:28.128Z,99326.94
2022-11-23T23:27:30.697Z,99332.53
2022-11-23T23:30:32.592Z,99329.16
2022-11-23T23:33:35.201Z,99346.47
2022-11-23T23:36:37.180Z,99340.41
2022-11-23T23:39:38.868Z,99345.16
2022-11-23T23:42:40.579Z,99344.31
2022-11-23T23:45:42.301Z,99357.06
2022-11-23T23:48:44.610Z,99356.22
2022-11-23T23:51:51.292Z,99360.16
2022-11-23T23:54:53.283Z,99362.00
2022-11-23T23:57:54.901Z,99364.91
